createdAt,value
2023-03-08T00:00:42.307Z,78
2023-03-08T00:01:49.334Z,78
2023-03-08T00:02:55.990Z,78
2023-03-08T00:04:03.374Z,78
2023-03-08T00:05:10.682Z,78
2023-03-08T00:07:24.402Z,78
2023-03-08T00:08:31.010Z,78
2023-03-08T00:09:38.258Z,78
2023-03-08T00:10:45.178Z,78
2023-03-08T00:11:52.329Z,78
2023-03-08T00:12:59.381Z,78
2023-03-08T00:14:05.998Z,77
2023-03-08T00:15:13.226Z,77
2023-03-08T00:16:20.198Z,77
2023-03-08T00:17:27.284Z,77
2023-03-08T00:18:34.430Z,77
2023-03-08T00:19:40.964Z,77
2023-03-08T00:20:48.124Z,77
2023-03-08T00:21:55.188Z,77
2023-03-08T00:23:02.307Z,77
2023-03-08T00:24:08.849Z,77
2023-03-08T00:25:16.079Z,77
2023-03-08T00:26:23.173Z,77
2023-03-08T00:27:30.164Z,77
2023-03-08T00:28:37.297Z,77
2023-03-08T00:29:43.882Z,78
2023-03-08T00:30:50.968Z,77
2023-03-08T00:31:58.125Z,77
2023-03-08T00:33:05.210Z,77
2023-03-08T00:34:12.315Z,78
2023-03-08T00:35:19.011Z,78
2023-03-08T00:36:26.016Z,78
2023-03-08T00:37:33.194Z,78
2023-03-08T00:38:40.226Z,77
2023-03-08T00:39:47.341Z,77
2023-03-08T00:40:57.096Z,78
2023-03-08T00:42:01.053Z,78
2023-03-08T00:43:08.115Z,78
2023-03-08T00:44:15.265Z,78
2023-03-08T00:45:22.377Z,78
2023-03-08T00:46:28.965Z,77
2023-03-08T00:47:36.075Z,77
2023-03-08T00:48:43.213Z,77
2023-03-08T00:49:50.251Z,77
2023-03-08T00:50:57.320Z,77
2023-03-08T00:52:04.501Z,78
2023-03-08T00:53:11.070Z,78
2023-03-08T00:54:18.113Z,78
2023-03-08T00:55:25.274Z,78
2023-03-08T00:57:38.998Z,78
2023-03-08T00:58:46.083Z,78
2023-03-08T00:59:53.199Z,78
2023-03-08T01:01:00.343Z,78
2023-03-08T01:02:07.442Z,78
2023-03-08T01:03:13.979Z,78
2023-03-08T01:04:21.014Z,78
2023-03-08T01:05:28.179Z,78
2023-03-08T01:06:35.322Z,78
2023-03-08T01:07:42.468Z,78
2023-03-08T01:08:48.922Z,78
2023-03-08T01:11:03.218Z,78
2023-03-08T01:12:10.230Z,78
2023-03-08T01:13:17.440Z,78
2023-03-08T01:14:23.988Z,78
2023-03-08T01:15:31.088Z,78
2023-03-08T01:16:38.145Z,78
2023-03-08T01:17:45.354Z,78
2023-03-08T01:18:52.429Z,78
2023-03-08T01:19:58.949Z,78
2023-03-08T01:21:06.106Z,78
2023-03-08T01:22:13.180Z,78
2023-03-08T01:23:20.319Z,78
2023-03-08T01:24:27.358Z,78
2023-03-08T01:25:34.020Z,78
2023-03-08T01:26:41.110Z,78
2023-03-08T01:27:48.221Z,78
2023-03-08T01:28:55.317Z,78
2023-03-08T01:30:02.428Z,78
2023-03-08T01:31:09.012Z,78
2023-03-08T01:32:16.187Z,78
2023-03-08T01:33:23.737Z,78
2023-03-08T01:34:30.288Z,78
2023-03-08T01:35:37.466Z,78
2023-03-08T01:36:43.988Z,78
2023-03-08T01:37:51.137Z,78
2023-03-08T01:38:58.206Z,78
2023-03-08T01:40:05.352Z,78
2023-03-08T01:41:12.423Z,78
2023-03-08T01:42:19.008Z,78
2023-03-08T01:43:26.161Z,78
2023-03-08T01:44:33.199Z,78
2023-03-08T01:45:40.321Z,78
2023-03-08T01:46:47.433Z,78
2023-03-08T01:47:54.008Z,78
2023-03-08T01:49:01.148Z,78
2023-03-08T01:50:08.275Z,78
2023-03-08T01:51:15.308Z,78
2023-03-08T01:52:22.474Z,78
2023-03-08T01:53:29.069Z,78
2023-03-08T01:54:36.117Z,78
2023-03-08T01:55:43.238Z,78
2023-03-08T01:56:50.318Z,78
2023-03-08T01:57:57.461Z,78
2023-03-08T01:59:04.032Z,78
2023-03-08T02:00:11.144Z,78
2023-03-08T02:01:18.319Z,78
2023-03-08T02:02:28.199Z,78
2023-03-08T02:03:32.495Z,78
2023-03-08T02:04:39.048Z,78
2023-03-08T02:05:46.258Z,78
2023-03-08T02:06:53.208Z,79
2023-03-08T02:08:00.384Z,79
2023-03-08T02:09:07.460Z,79
2023-03-08T02:10:14.056Z,79
2023-03-08T02:11:21.117Z,79
2023-03-08T02:12:28.207Z,79
2023-03-08T02:14:42.502Z,79
2023-03-08T02:15:49.022Z,79
2023-03-08T02:16:56.215Z,79
2023-03-08T02:18:03.264Z,79
2023-03-08T02:19:10.359Z,79
2023-03-08T02:20:17.511Z,79
2023-03-08T02:21:24.129Z,79
2023-03-08T02:22:31.157Z,79
2023-03-08T02:23:38.290Z,79
2023-03-08T02:25:52.531Z,79
2023-03-08T02:26:59.100Z,79
2023-03-08T02:28:06.170Z,79
2023-03-08T02:29:13.266Z,79
2023-03-08T02:30:20.410Z,79
2023-03-08T02:31:27.496Z,79
2023-03-08T02:32:35.257Z,79
2023-03-08T02:33:41.264Z,79
2023-03-08T02:34:48.278Z,79
2023-03-08T02:35:55.500Z,79
2023-03-08T02:37:02.551Z,79
2023-03-08T02:38:09.217Z,79
2023-03-08T02:39:16.188Z,79
2023-03-08T02:40:23.311Z,79
2023-03-08T02:41:30.392Z,79
2023-03-08T02:42:37.482Z,79
2023-03-08T02:43:44.187Z,79
2023-03-08T02:44:51.247Z,79
2023-03-08T02:45:58.305Z,79
2023-03-08T02:47:05.409Z,79
2023-03-08T02:48:12.585Z,79
2023-03-08T02:49:19.613Z,79
2023-03-08T02:50:26.234Z,79
2023-03-08T02:51:33.299Z,79
2023-03-08T02:52:40.422Z,79
2023-03-08T02:53:47.524Z,79
2023-03-08T02:54:54.139Z,79
2023-03-08T02:56:01.296Z,79
2023-03-08T02:57:08.310Z,79
2023-03-08T02:58:15.432Z,79
2023-03-08T02:59:23.962Z,79
2023-03-08T03:00:29.067Z,79
2023-03-08T03:01:36.784Z,79
2023-03-08T03:02:43.323Z,79
2023-03-08T03:03:50.430Z,79
2023-03-08T03:04:57.507Z,79
2023-03-08T03:06:04.322Z,79
2023-03-08T03:07:11.179Z,79
2023-03-08T03:08:18.379Z,79
2023-03-08T03:09:25.471Z,79
2023-03-08T03:10:32.572Z,79
2023-03-08T03:11:39.254Z,79
2023-03-08T03:12:46.290Z,79
2023-03-08T03:13:53.382Z,79
2023-03-08T03:15:00.468Z,79
2023-03-08T03:16:07.540Z,79
2023-03-08T03:18:21.260Z,79
2023-03-08T03:19:28.295Z,79
2023-03-08T03:20:35.466Z,80
2023-03-08T03:21:42.768Z,80
2023-03-08T03:22:49.675Z,80
2023-03-08T03:23:56.271Z,79
2023-03-08T03:25:03.352Z,79
2023-03-08T03:26:10.516Z,79
2023-03-08T03:27:17.566Z,79
2023-03-08T03:28:24.224Z,79
2023-03-08T03:29:31.283Z,79
2023-03-08T03:30:38.422Z,79
2023-03-08T03:31:45.439Z,79
2023-03-08T03:32:52.602Z,79
2023-03-08T03:33:59.153Z,79
2023-03-08T03:35:06.280Z,79
2023-03-08T03:36:13.924Z,79
2023-03-08T03:37:20.519Z,79
2023-03-08T03:38:27.562Z,79
2023-03-08T03:39:34.157Z,78
2023-03-08T03:40:41.262Z,78
2023-03-08T03:41:48.361Z,78
2023-03-08T03:42:55.547Z,78
2023-03-08T03:44:02.647Z,78
2023-03-08T03:45:09.143Z,78
2023-03-08T03:46:16.386Z,78
2023-03-08T03:47:23.375Z,78
2023-03-08T03:48:30.526Z,78
2023-03-08T03:49:37.579Z,78
2023-03-08T03:50:44.170Z,78
2023-03-08T03:51:51.289Z,78
2023-03-08T03:52:58.383Z,78
2023-03-08T03:54:07.345Z,78
2023-03-08T03:55:12.599Z,78
2023-03-08T03:56:19.140Z,78
2023-03-08T03:57:26.317Z,78
2023-03-08T03:58:33.427Z,78
2023-03-08T03:59:40.501Z,78
2023-03-08T04:00:47.565Z,78
2023-03-08T04:01:54.215Z,78
2023-03-08T04:03:01.653Z,78
2023-03-08T04:04:08.365Z,78
2023-03-08T04:05:15.543Z,78
2023-03-08T04:06:22.640Z,78
2023-03-08T04:07:29.157Z,77
2023-03-08T04:08:36.356Z,77
2023-03-08T04:09:43.519Z,77
2023-03-08T04:10:50.504Z,77
2023-03-08T04:11:57.644Z,77
2023-03-08T04:13:04.340Z,77
2023-03-08T04:14:11.372Z,77
2023-03-08T04:15:18.428Z,77
2023-03-08T04:16:28.674Z,77
2023-03-08T04:17:32.666Z,77
2023-03-08T04:18:39.255Z,77
2023-03-08T04:19:46.392Z,77
2023-03-08T04:22:00.511Z,77
2023-03-08T04:23:07.655Z,77
2023-03-08T04:24:14.259Z,77
2023-03-08T04:25:21.346Z,77
2023-03-08T04:26:28.509Z,77
2023-03-08T04:27:35.602Z,77
2023-03-08T04:28:42.704Z,77
2023-03-08T04:30:57.134Z,77
2023-03-08T04:32:03.492Z,77
2023-03-08T04:33:10.553Z,77
2023-03-08T04:34:17.677Z,77
2023-03-08T04:35:24.267Z,77
2023-03-08T04:36:31.350Z,77
2023-03-08T04:37:38.439Z,77
2023-03-08T04:38:45.637Z,77
2023-03-08T04:39:53.190Z,77
2023-03-08T04:40:59.241Z,77
2023-03-08T04:42:06.404Z,77
2023-03-08T04:43:13.539Z,77
2023-03-08T04:44:20.559Z,77
2023-03-08T04:45:27.633Z,77
2023-03-08T04:46:34.373Z,77
2023-03-08T04:47:41.456Z,77
2023-03-08T04:48:48.538Z,77
2023-03-08T04:49:55.583Z,77
2023-03-08T04:51:02.756Z,77
2023-03-08T04:52:09.241Z,77
2023-03-08T04:53:16.422Z,77
2023-03-08T04:54:23.465Z,77
2023-03-08T04:55:30.583Z,77
2023-03-08T04:56:37.663Z,77
2023-03-08T04:57:44.329Z,77
2023-03-08T04:58:51.444Z,77
2023-03-08T04:59:58.481Z,77
2023-03-08T05:01:05.607Z,77
2023-03-08T05:02:12.958Z,77
2023-03-08T05:03:19.325Z,77
2023-03-08T05:04:26.410Z,77
2023-03-08T05:05:33.442Z,77
2023-03-08T05:06:40.591Z,77
2023-03-08T05:07:47.659Z,77
2023-03-08T05:08:54.311Z,77
2023-03-08T05:10:01.438Z,77
2023-03-08T05:11:08.468Z,77
2023-03-08T05:12:15.637Z,77
2023-03-08T05:13:22.815Z,77
2023-03-08T05:14:29.281Z,77
2023-03-08T05:15:36.413Z,77
2023-03-08T05:16:43.563Z,77
2023-03-08T05:17:50.664Z,77
2023-03-08T05:18:58.267Z,77
2023-03-08T05:20:04.309Z,77
2023-03-08T05:21:11.463Z,77
2023-03-08T05:22:18.492Z,77
2023-03-08T05:23:28.117Z,78
2023-03-08T05:25:39.317Z,78
2023-03-08T05:26:46.457Z,78
2023-03-08T05:27:53.708Z,78
2023-03-08T05:29:00.641Z,78
2023-03-08T05:30:07.685Z,78
2023-03-08T05:31:14.351Z,78
2023-03-08T05:32:21.472Z,78
2023-03-08T05:33:28.543Z,78
2023-03-08T05:34:35.675Z,78
2023-03-08T05:35:42.861Z,78
2023-03-08T05:36:49.611Z,78
2023-03-08T05:37:56.485Z,78
2023-03-08T05:39:03.534Z,79
2023-03-08T05:40:10.659Z,78
2023-03-08T05:41:17.763Z,79
2023-03-08T05:42:24.322Z,79
2023-03-08T05:43:32.097Z,79
2023-03-08T05:44:38.496Z,79
2023-03-08T05:45:45.841Z,79
2023-03-08T05:46:52.782Z,79
2023-03-08T05:47:59.890Z,79
2023-03-08T05:49:06.443Z,79
2023-03-08T05:50:13.559Z,79
2023-03-08T05:51:20.649Z,79
2023-03-08T05:52:27.730Z,79
2023-03-08T05:53:34.411Z,79
2023-03-08T05:54:41.472Z,79
2023-03-08T05:55:48.558Z,79
2023-03-08T05:56:55.700Z,79
2023-03-08T05:59:09.349Z,79
2023-03-08T06:00:16.454Z,79
2023-03-08T06:01:23.557Z,79
2023-03-08T06:02:30.716Z,79
2023-03-08T06:03:37.919Z,79
2023-03-08T06:04:44.379Z,79
2023-03-08T06:05:51.481Z,79
2023-03-08T06:06:58.550Z,79
2023-03-08T06:08:05.719Z,79
2023-03-08T06:09:12.812Z,79
2023-03-08T06:10:19.379Z,79
2023-03-08T06:11:26.505Z,79
2023-03-08T06:12:33.564Z,79
2023-03-08T06:13:40.817Z,79
2023-03-08T06:14:47.778Z,79
2023-03-08T06:15:54.403Z,79
2023-03-08T06:17:01.572Z,79
2023-03-08T06:18:08.581Z,79
2023-03-08T06:19:15.740Z,79
2023-03-08T06:20:22.813Z,79
2023-03-08T06:21:29.333Z,79
2023-03-08T06:22:36.521Z,79
2023-03-08T06:23:43.670Z,79
2023-03-08T06:24:50.694Z,79
2023-03-08T06:25:57.826Z,79
2023-03-08T06:27:04.377Z,79
2023-03-08T06:29:18.648Z,79
2023-03-08T06:30:25.744Z,79
2023-03-08T06:31:32.815Z,78
2023-03-08T06:32:39.458Z,78
2023-03-08T06:33:46.542Z,78
2023-03-08T06:34:53.662Z,78
2023-03-08T06:36:00.834Z,78
2023-03-08T06:37:07.775Z,78
2023-03-08T06:38:14.453Z,78
2023-03-08T06:39:21.529Z,78
2023-03-08T06:40:28.623Z,78
2023-03-08T06:41:35.769Z,78
2023-03-08T06:42:42.890Z,78
2023-03-08T06:43:49.439Z,78
2023-03-08T06:44:56.556Z,78
2023-03-08T06:46:03.689Z,78
2023-03-08T06:47:11.300Z,78
2023-03-08T06:48:17.844Z,78
2023-03-08T06:49:24.458Z,78
2023-03-08T06:50:31.521Z,78
2023-03-08T06:51:38.702Z,78
2023-03-08T06:52:45.729Z,78
2023-03-08T06:53:52.944Z,78
2023-03-08T06:54:59.392Z,78
2023-03-08T06:56:06.587Z,78
2023-03-08T06:57:13.792Z,78
2023-03-08T06:58:20.752Z,78
2023-03-08T06:59:27.860Z,78
2023-03-08T07:00:34.458Z,78
2023-03-08T07:01:41.616Z,78
2023-03-08T07:02:48.759Z,78
2023-03-08T07:03:55.880Z,78
2023-03-08T07:05:02.851Z,78
2023-03-08T07:06:09.399Z,78
2023-03-08T07:07:16.637Z,78
2023-03-08T07:08:23.670Z,78
2023-03-08T07:09:30.770Z,77
2023-03-08T07:10:37.876Z,78
2023-03-08T07:11:44.497Z,78
2023-03-08T07:12:51.574Z,78
2023-03-08T07:13:58.687Z,78
2023-03-08T07:15:05.813Z,78
2023-03-08T07:16:13.053Z,78
2023-03-08T07:17:19.448Z,78
2023-03-08T07:18:26.617Z,78
2023-03-08T07:19:33.712Z,78
2023-03-08T07:20:40.830Z,78
2023-03-08T07:21:47.909Z,78
2023-03-08T07:22:54.471Z,78
2023-03-08T07:24:01.635Z,78
2023-03-08T07:25:08.847Z,78
2023-03-08T07:27:22.992Z,78
2023-03-08T07:28:29.623Z,78
2023-03-08T07:29:36.575Z,78
2023-03-08T07:30:43.732Z,78
2023-03-08T07:32:57.904Z,78
2023-03-08T07:34:04.525Z,78
2023-03-08T07:35:11.586Z,78
2023-03-08T07:36:18.705Z,78
2023-03-08T07:37:25.756Z,78
2023-03-08T07:38:32.967Z,78
2023-03-08T07:39:39.483Z,78
2023-03-08T07:40:46.621Z,78
2023-03-08T07:41:53.728Z,78
2023-03-08T07:43:00.790Z,78
2023-03-08T07:44:07.891Z,78
2023-03-08T07:45:14.570Z,78
2023-03-08T07:46:21.628Z,78
2023-03-08T07:47:28.703Z,78
2023-03-08T07:48:35.849Z,78
2023-03-08T07:49:42.950Z,79
2023-03-08T07:50:50.075Z,79
2023-03-08T07:51:56.618Z,79
2023-03-08T07:53:03.762Z,79
2023-03-08T07:54:10.813Z,79
2023-03-08T07:55:17.918Z,79
2023-03-08T07:56:24.573Z,79
2023-03-08T07:57:31.594Z,79
2023-03-08T07:58:38.738Z,79
2023-03-08T07:59:45.828Z,79
2023-03-08T08:00:52.962Z,79
2023-03-08T08:01:59.511Z,79
2023-03-08T08:03:06.661Z,79
2023-03-08T08:04:13.853Z,79
2023-03-08T08:05:20.886Z,79
2023-03-08T08:06:27.945Z,79
2023-03-08T08:07:34.578Z,79
2023-03-08T08:08:41.716Z,79
2023-03-08T08:09:48.819Z,80
2023-03-08T08:10:57.349Z,80
2023-03-08T08:12:02.959Z,80
2023-03-08T08:13:09.578Z,80
2023-03-08T08:14:16.681Z,80
2023-03-08T08:15:23.753Z,80
2023-03-08T08:16:30.957Z,80
2023-03-08T08:17:37.948Z,80
2023-03-08T08:18:44.597Z,80
2023-03-08T08:19:51.668Z,80
2023-03-08T08:20:58.736Z,80
2023-03-08T08:22:05.858Z,80
2023-03-08T08:23:13.017Z,80
2023-03-08T08:24:19.525Z,80
2023-03-08T08:25:26.681Z,80
2023-03-08T08:26:33.773Z,80
2023-03-08T08:27:40.836Z,80
2023-03-08T08:28:47.972Z,80
2023-03-08T08:29:54.584Z,80
2023-03-08T08:31:01.736Z,80
2023-03-08T08:32:08.846Z,80
2023-03-08T08:33:15.954Z,80
2023-03-08T08:34:23.021Z,80
2023-03-08T08:36:36.656Z,80
2023-03-08T08:37:43.818Z,80
2023-03-08T08:38:50.895Z,80
2023-03-08T08:39:57.946Z,80
2023-03-08T08:41:04.545Z,80
2023-03-08T08:42:11.766Z,80
2023-03-08T08:43:18.835Z,80
2023-03-08T08:44:25.904Z,80
2023-03-08T08:45:33.040Z,80
2023-03-08T08:46:39.596Z,80
2023-03-08T08:47:46.714Z,80
2023-03-08T08:48:53.857Z,80
2023-03-08T08:50:00.854Z,80
2023-03-08T08:51:08.011Z,80
2023-03-08T08:52:14.595Z,80
2023-03-08T08:53:21.963Z,80
2023-03-08T08:55:35.914Z,80
2023-03-08T08:56:43.190Z,80
2023-03-08T08:57:49.625Z,80
2023-03-08T08:58:56.770Z,80
2023-03-08T09:00:03.809Z,80
2023-03-08T09:01:10.903Z,80
2023-03-08T09:02:18.037Z,80
2023-03-08T09:03:24.633Z,80
2023-03-08T09:04:31.972Z,80
2023-03-08T09:05:38.808Z,80
2023-03-08T09:06:45.954Z,80
2023-03-08T09:07:52.982Z,80
2023-03-08T09:08:59.568Z,80
2023-03-08T09:10:06.801Z,80
2023-03-08T09:11:13.882Z,80
2023-03-08T09:12:20.904Z,80
2023-03-08T09:13:28.193Z,80
2023-03-08T09:14:34.658Z,81
2023-03-08T09:15:41.830Z,81
2023-03-08T09:16:48.933Z,81
2023-03-08T09:17:55.955Z,81
2023-03-08T09:19:03.022Z,81
2023-03-08T09:20:09.629Z,81
2023-03-08T09:21:16.811Z,81
2023-03-08T09:22:23.863Z,81
2023-03-08T09:23:30.959Z,81
2023-03-08T09:24:38.031Z,81
2023-03-08T09:25:44.660Z,81
2023-03-08T09:26:51.812Z,82
2023-03-08T09:27:58.844Z,82
2023-03-08T09:29:05.977Z,82
2023-03-08T09:30:13.150Z,82
2023-03-08T09:31:19.686Z,82
2023-03-08T09:32:26.820Z,82
2023-03-08T09:33:33.861Z,82
2023-03-08T09:34:40.987Z,82
2023-03-08T09:35:48.183Z,82
2023-03-08T09:36:54.693Z,82
2023-03-08T09:38:01.812Z,82
2023-03-08T09:40:16.003Z,82
2023-03-08T09:41:23.138Z,82
2023-03-08T09:42:29.697Z,82
2023-03-08T09:43:36.797Z,82
2023-03-08T09:44:44.147Z,82
2023-03-08T09:45:51.024Z,82
2023-03-08T09:46:58.140Z,82
2023-03-08T09:48:05.033Z,82
2023-03-08T09:49:11.815Z,82
2023-03-08T09:50:18.898Z,82
2023-03-08T09:51:26.017Z,82
2023-03-08T09:52:33.082Z,82
2023-03-08T09:53:39.688Z,82
2023-03-08T09:54:46.830Z,82
2023-03-08T09:55:54.074Z,82
2023-03-08T09:57:01.017Z,82
2023-03-08T09:58:08.106Z,82
2023-03-08T09:59:14.675Z,82
2023-03-08T10:00:21.929Z,82
2023-03-08T10:01:28.928Z,82
2023-03-08T10:02:36.087Z,81
2023-03-08T10:03:42.652Z,81
2023-03-08T10:04:54.779Z,81
2023-03-08T10:05:56.814Z,81
2023-03-08T10:07:03.949Z,81
2023-03-08T10:08:11.060Z,81
2023-03-08T10:09:17.579Z,81
2023-03-08T10:10:24.719Z,81
2023-03-08T10:11:31.828Z,80
2023-03-08T10:12:38.929Z,80
2023-03-08T10:13:46.076Z,80
2023-03-08T10:14:52.689Z,80
2023-03-08T10:15:59.734Z,80
2023-03-08T10:17:06.828Z,80
2023-03-08T10:18:13.986Z,79
2023-03-08T10:19:21.038Z,79
2023-03-08T10:20:28.152Z,79
2023-03-08T10:21:34.777Z,79
2023-03-08T10:23:48.980Z,78
2023-03-08T10:24:56.057Z,78
2023-03-08T10:26:02.649Z,78
2023-03-08T10:27:09.785Z,78
2023-03-08T10:28:16.861Z,78
2023-03-08T10:29:23.961Z,78
2023-03-08T10:30:31.087Z,78
2023-03-08T10:31:37.620Z,77
2023-03-08T10:32:44.826Z,77
2023-03-08T10:33:51.933Z,77
2023-03-08T10:34:58.930Z,77
2023-03-08T10:36:06.108Z,77
2023-03-08T10:37:12.663Z,76
2023-03-08T10:38:19.699Z,76
2023-03-08T10:39:26.927Z,76
2023-03-08T10:40:34.029Z,76
2023-03-08T10:41:41.055Z,76
2023-03-08T10:43:54.910Z,76
2023-03-08T10:45:01.876Z,76
2023-03-08T10:46:09.047Z,75
2023-03-08T10:47:16.098Z,75
2023-03-08T10:48:22.682Z,75
2023-03-08T10:49:29.720Z,75
2023-03-08T10:50:36.887Z,74
2023-03-08T10:51:43.931Z,74
2023-03-08T10:52:51.038Z,74
2023-03-08T10:53:57.731Z,74
2023-03-08T10:55:04.783Z,74
2023-03-08T10:56:11.905Z,74
2023-03-08T10:57:18.968Z,74
2023-03-08T10:58:26.113Z,74
2023-03-08T10:59:32.725Z,73
2023-03-08T11:00:39.794Z,73
2023-03-08T11:01:47.397Z,73
2023-03-08T11:02:53.973Z,73
2023-03-08T11:04:01.088Z,73
2023-03-08T11:05:07.624Z,73
2023-03-08T11:06:14.796Z,73
2023-03-08T11:07:21.940Z,73
2023-03-08T11:08:29.022Z,73
2023-03-08T11:09:36.086Z,73
2023-03-08T11:10:42.752Z,73
2023-03-08T11:11:49.760Z,73
2023-03-08T11:12:56.938Z,73
2023-03-08T11:14:04.113Z,73
2023-03-08T11:15:11.142Z,73
2023-03-08T11:16:17.736Z,73
2023-03-08T11:17:24.794Z,72
2023-03-08T11:18:32.001Z,72
2023-03-08T11:19:38.962Z,72
2023-03-08T11:20:46.111Z,72
2023-03-08T11:21:52.712Z,72
2023-03-08T11:22:59.844Z,72
2023-03-08T11:24:07.040Z,72
2023-03-08T11:25:13.995Z,72
2023-03-08T11:26:21.166Z,72
2023-03-08T11:27:27.711Z,72
2023-03-08T11:28:34.934Z,72
2023-03-08T11:29:41.968Z,72
2023-03-08T11:30:49.058Z,71
2023-03-08T11:31:56.128Z,71
2023-03-08T11:33:02.876Z,71
2023-03-08T11:34:09.928Z,71
2023-03-08T11:35:16.973Z,71
2023-03-08T11:36:24.041Z,71
2023-03-08T11:37:31.132Z,71
2023-03-08T11:38:37.751Z,71
2023-03-08T11:39:44.804Z,71
2023-03-08T11:40:51.925Z,71
2023-03-08T11:41:59.059Z,71
2023-03-08T11:43:06.194Z,71
2023-03-08T11:44:12.739Z,71
2023-03-08T11:45:19.867Z,71
2023-03-08T11:47:34.056Z,71
2023-03-08T11:48:41.264Z,71
2023-03-08T11:49:47.700Z,71
2023-03-08T11:52:01.989Z,71
2023-03-08T11:53:09.108Z,71
2023-03-08T11:54:16.168Z,71
2023-03-08T11:55:22.802Z,71
2023-03-08T11:56:29.860Z,71
2023-03-08T11:57:36.951Z,71
2023-03-08T11:58:46.153Z,71
2023-03-08T11:59:51.129Z,71
2023-03-08T12:00:57.728Z,71
2023-03-08T12:02:04.859Z,71
2023-03-08T12:03:12.008Z,71
2023-03-08T12:04:19.062Z,71
2023-03-08T12:05:26.250Z,71
2023-03-08T12:06:33.862Z,71
2023-03-08T12:07:39.828Z,71
2023-03-08T12:08:47.101Z,71
2023-03-08T12:09:54.153Z,71
2023-03-08T12:11:01.157Z,71
2023-03-08T12:12:07.765Z,71
2023-03-08T12:13:14.985Z,70
2023-03-08T12:14:22.014Z,70
2023-03-08T12:15:29.165Z,70
2023-03-08T12:16:36.390Z,70
2023-03-08T12:17:42.805Z,70
2023-03-08T12:18:49.974Z,70
2023-03-08T12:19:56.973Z,70
2023-03-08T12:21:04.085Z,70
2023-03-08T12:22:10.667Z,70
2023-03-08T12:23:17.783Z,70
2023-03-08T12:24:24.952Z,70
2023-03-08T12:25:32.037Z,70
2023-03-08T12:26:39.113Z,70
2023-03-08T12:27:45.873Z,70
2023-03-08T12:28:52.796Z,70
2023-03-08T12:29:59.862Z,70
2023-03-08T12:31:15.384Z,70
2023-03-08T12:32:14.399Z,70
2023-03-08T12:33:20.877Z,70
2023-03-08T12:34:27.834Z,70
2023-03-08T12:35:34.950Z,70
2023-03-08T12:36:42.318Z,70
2023-03-08T12:37:49.065Z,70
2023-03-08T12:38:55.769Z,70
2023-03-08T12:40:02.821Z,70
2023-03-08T12:41:09.960Z,69
2023-03-08T12:42:17.057Z,69
2023-03-08T12:43:24.136Z,69
2023-03-08T12:44:30.750Z,69
2023-03-08T12:45:37.805Z,69
2023-03-08T12:46:56.361Z,69
2023-03-08T12:47:52.114Z,69
2023-03-08T12:48:59.214Z,69
2023-03-08T12:51:12.892Z,69
2023-03-08T12:52:20.008Z,69
2023-03-08T12:53:27.063Z,69
2023-03-08T12:54:34.114Z,69
2023-03-08T12:55:40.769Z,69
2023-03-08T12:56:47.838Z,69
2023-03-08T12:57:54.980Z,69
2023-03-08T12:59:02.095Z,69
2023-03-08T13:00:10.198Z,69
2023-03-08T13:01:15.824Z,69
2023-03-08T13:02:22.840Z,69
2023-03-08T13:03:30.015Z,69
2023-03-08T13:04:41.451Z,69
2023-03-08T13:05:44.160Z,69
2023-03-08T13:06:50.803Z,69
2023-03-08T13:07:57.851Z,69
2023-03-08T13:09:05.528Z,69
2023-03-08T13:10:12.061Z,69
2023-03-08T13:11:19.129Z,69
2023-03-08T13:12:25.729Z,69
2023-03-08T13:13:37.994Z,69
2023-03-08T13:14:40.013Z,69
2023-03-08T13:15:47.107Z,69
2023-03-08T13:16:54.383Z,69
2023-03-08T13:18:00.774Z,69
2023-03-08T13:20:15.061Z,69
2023-03-08T13:21:22.106Z,69
2023-03-08T13:22:29.174Z,69
2023-03-08T13:23:35.874Z,69
2023-03-08T13:24:42.936Z,69
2023-03-08T13:25:50.655Z,69
2023-03-08T13:26:57.117Z,69
2023-03-08T13:28:04.228Z,69
2023-03-08T13:29:10.881Z,69
2023-03-08T13:30:17.921Z,69
2023-03-08T13:31:25.144Z,69
2023-03-08T13:32:32.106Z,69
2023-03-08T13:33:39.226Z,69
2023-03-08T13:34:45.786Z,69
2023-03-08T13:35:52.990Z,69
2023-03-08T13:37:00.000Z,69
2023-03-08T13:38:07.087Z,69
2023-03-08T13:39:14.203Z,69
2023-03-08T13:40:20.782Z,68
2023-03-08T13:41:27.879Z,68
2023-03-08T13:42:35.060Z,68
2023-03-08T13:43:42.253Z,68
2023-03-08T13:44:49.192Z,68
2023-03-08T13:45:55.913Z,68
2023-03-08T13:47:02.863Z,68
2023-03-08T13:48:10.000Z,68
2023-03-08T13:49:17.188Z,68
2023-03-08T13:50:24.278Z,68
2023-03-08T13:51:30.798Z,68
2023-03-08T13:52:37.928Z,68
2023-03-08T13:54:52.231Z,68
2023-03-08T13:55:59.764Z,68
2023-03-08T13:57:05.877Z,68
2023-03-08T13:58:12.945Z,68
2023-03-08T13:59:20.089Z,68
2023-03-08T14:00:27.209Z,68
2023-03-08T14:01:35.532Z,68
2023-03-08T14:02:40.919Z,68
2023-03-08T14:03:47.968Z,68
2023-03-08T14:04:55.151Z,68
2023-03-08T14:06:02.286Z,68
2023-03-08T14:07:09.247Z,68
2023-03-08T14:08:15.788Z,68
2023-03-08T14:09:22.899Z,68
2023-03-08T14:10:30.074Z,68
2023-03-08T14:11:37.326Z,67
2023-03-08T14:12:44.391Z,67
2023-03-08T14:13:50.932Z,67
2023-03-08T14:14:57.982Z,67
2023-03-08T14:16:05.129Z,67
2023-03-08T14:17:12.169Z,67
2023-03-08T14:18:19.388Z,67
2023-03-08T14:19:25.936Z,67
2023-03-08T14:20:33.081Z,67
2023-03-08T14:21:40.071Z,67
2023-03-08T14:22:47.229Z,67
2023-03-08T14:23:54.278Z,67
2023-03-08T14:25:00.879Z,67
2023-03-08T14:26:07.975Z,67
2023-03-08T14:27:15.118Z,67
2023-03-08T14:28:22.332Z,67
2023-03-08T14:29:28.888Z,67
2023-03-08T14:30:35.903Z,67
2023-03-08T14:31:43.078Z,67
2023-03-08T14:32:50.102Z,67
2023-03-08T14:33:57.290Z,67
2023-03-08T14:35:03.752Z,67
2023-03-08T14:36:10.958Z,67
2023-03-08T14:37:17.970Z,67
2023-03-08T14:38:25.190Z,67
2023-03-08T14:39:32.210Z,67
2023-03-08T14:40:38.752Z,67
2023-03-08T14:41:45.860Z,67
2023-03-08T14:42:53.035Z,67
2023-03-08T14:44:00.039Z,68
2023-03-08T14:45:09.747Z,68
2023-03-08T14:46:13.859Z,68
2023-03-08T14:48:28.254Z,68
2023-03-08T14:49:35.313Z,68
2023-03-08T14:50:42.229Z,68
2023-03-08T14:51:48.785Z,68
2023-03-08T14:52:55.972Z,68
2023-03-08T14:54:03.085Z,68
2023-03-08T14:55:10.128Z,68
2023-03-08T14:56:17.187Z,68
2023-03-08T14:57:23.778Z,68
2023-03-08T14:58:30.848Z,68
2023-03-08T14:59:37.948Z,68
2023-03-08T15:00:45.126Z,68
2023-03-08T15:01:52.284Z,68
2023-03-08T15:02:58.808Z,68
2023-03-08T15:04:05.960Z,67
2023-03-08T15:05:14.144Z,67
2023-03-08T15:06:20.227Z,67
2023-03-08T15:07:27.212Z,68
2023-03-08T15:08:33.827Z,68
2023-03-08T15:09:40.996Z,68
2023-03-08T15:10:47.967Z,68
2023-03-08T15:11:55.239Z,68
2023-03-08T15:13:02.274Z,68
2023-03-08T15:14:08.829Z,68
2023-03-08T15:15:15.894Z,68
2023-03-08T15:16:23.551Z,68
2023-03-08T15:17:30.151Z,68
2023-03-08T15:18:37.253Z,68
2023-03-08T15:19:43.885Z,68
2023-03-08T15:20:50.933Z,68
2023-03-08T15:21:58.058Z,68
2023-03-08T15:23:05.147Z,68
2023-03-08T15:24:12.838Z,68
2023-03-08T15:25:18.785Z,68
2023-03-08T15:26:25.921Z,69
2023-03-08T15:27:33.099Z,69
2023-03-08T15:28:40.146Z,69
2023-03-08T15:29:47.322Z,69
2023-03-08T15:30:53.883Z,69
2023-03-08T15:32:00.917Z,69
2023-03-08T15:33:08.098Z,69
2023-03-08T15:34:15.192Z,69
2023-03-08T15:35:22.335Z,69
2023-03-08T15:36:28.831Z,69
2023-03-08T15:37:35.926Z,69
2023-03-08T15:38:43.072Z,69
2023-03-08T15:39:50.223Z,69
2023-03-08T15:40:57.666Z,69
2023-03-08T15:42:03.912Z,69
2023-03-08T15:43:10.898Z,69
2023-03-08T15:44:18.082Z,69
2023-03-08T15:45:25.199Z,69
2023-03-08T15:46:32.348Z,69
2023-03-08T15:47:38.884Z,69
2023-03-08T15:48:46.057Z,69
2023-03-08T15:49:53.121Z,69
2023-03-08T15:51:00.119Z,69
2023-03-08T15:52:08.776Z,69
2023-03-08T15:53:20.632Z,69
2023-03-08T15:54:21.018Z,69
2023-03-08T15:55:28.025Z,69
2023-03-08T15:56:35.171Z,69
2023-03-08T15:57:42.338Z,69
2023-03-08T15:58:48.888Z,69
2023-03-08T15:59:56.055Z,69
2023-03-08T16:01:03.149Z,69
2023-03-08T16:02:10.330Z,69
2023-03-08T16:03:17.272Z,69
2023-03-08T16:04:23.995Z,69
2023-03-08T16:05:30.953Z,69
2023-03-08T16:06:38.146Z,69
2023-03-08T16:07:45.223Z,69
2023-03-08T16:08:52.313Z,69
2023-03-08T16:09:58.980Z,69
2023-03-08T16:11:06.216Z,69
2023-03-08T16:12:13.252Z,69
2023-03-08T16:13:20.320Z,69
2023-03-08T16:14:27.536Z,69
2023-03-08T16:16:45.653Z,69
2023-03-08T16:17:48.050Z,69
2023-03-08T16:18:55.332Z,69
2023-03-08T16:20:02.463Z,69
2023-03-08T16:21:08.910Z,69
2023-03-08T16:22:15.985Z,69
2023-03-08T16:23:23.133Z,69